createdAt,value
2019-02-24T00:01:01.831Z,76.30
2019-02-24T00:03:30.330Z,76.10
2019-02-24T00:05:58.766Z,76.60
2019-02-24T00:08:27.197Z,76.20
2019-02-24T00:10:55.663Z,75.90
2019-02-24T00:13:24.110Z,76.10
2019-02-24T00:15:52.842Z,76.40
2019-02-24T00:18:21.430Z,77.00
2019-02-24T00:20:49.890Z,77.70
2019-02-24T00:23:18.317Z,78.30
2019-02-24T00:25:46.858Z,78.20
2019-02-24T00:28:15.399Z,77.10
2019-02-24T00:30:43.857Z,75.60
2019-02-24T00:33:12.392Z,75.10
2019-02-24T00:35:40.826Z,73.70
2019-02-24T00:38:09.286Z,71.10
2019-02-24T00:40:37.713Z,71.10
2019-02-24T00:43:06.176Z,71.50
2019-02-24T00:45:34.613Z,73.40
2019-02-24T00:48:03.090Z,72.90
2019-02-24T00:50:31.642Z,72.40
2019-02-24T00:53:00.105Z,73.30
2019-02-24T00:55:30.599Z,74.40
2019-02-24T00:57:58.862Z,73.90
2019-02-24T01:00:27.287Z,74.10
2019-02-24T01:02:55.769Z,74.30
2019-02-24T01:05:24.255Z,75.20
2019-02-24T01:07:52.734Z,75.70
2019-02-24T01:10:21.180Z,76.70
2019-02-24T01:12:49.805Z,77.60
2019-02-24T01:15:18.234Z,78.40
2019-02-24T01:17:46.753Z,77.40
2019-02-24T01:20:15.209Z,78.20
2019-02-24T01:22:43.734Z,78.10
2019-02-24T01:25:12.186Z,78.60
2019-02-24T01:27:40.602Z,79.10
2019-02-24T01:30:10.790Z,79.40
2019-02-24T01:32:39.234Z,77.90
2019-02-24T01:35:08.450Z,77.30
2019-02-24T01:37:36.999Z,77.40
2019-02-24T01:40:07.309Z,77.60
2019-02-24T01:42:35.822Z,77.80
2019-02-24T01:45:05.406Z,77.50
2019-02-24T01:47:33.819Z,77.20
2019-02-24T01:50:02.338Z,74.50
2019-02-24T01:52:30.783Z,73.60
2019-02-24T01:54:59.249Z,73.10
2019-02-24T01:57:27.738Z,71.40
2019-02-24T01:59:56.218Z,69.00
2019-02-24T02:02:24.646Z,67.30
2019-02-24T02:04:54.054Z,66.00
2019-02-24T02:07:22.544Z,65.10
2019-02-24T02:09:55.074Z,64.30
2019-02-24T02:12:23.536Z,64.00
2019-02-24T02:14:52.046Z,64.80
2019-02-24T02:17:20.465Z,64.30
2019-02-24T02:19:48.901Z,63.70
2019-02-24T02:22:17.726Z,62.40
2019-02-24T02:24:46.162Z,63.60
2019-02-24T02:27:14.591Z,63.00
2019-02-24T02:29:43.077Z,62.60
2019-02-24T02:32:11.508Z,62.50
2019-02-24T02:34:39.953Z,62.10
2019-02-24T02:37:08.381Z,62.50
2019-02-24T02:39:36.850Z,64.10
2019-02-24T02:42:05.248Z,64.80
2019-02-24T02:44:33.727Z,64.30
2019-02-24T02:47:02.178Z,63.70
2019-02-24T02:49:30.619Z,62.80
2019-02-24T02:51:59.046Z,63.80
2019-02-24T02:54:27.530Z,63.50
2019-02-24T02:56:56.124Z,64.20
2019-02-24T02:59:24.631Z,64.30
2019-02-24T03:01:53.106Z,66.00
2019-02-24T03:04:21.546Z,68.20
2019-02-24T03:06:51.622Z,70.60
2019-02-24T03:09:20.056Z,70.60
2019-02-24T03:11:48.521Z,71.90
2019-02-24T03:14:16.927Z,71.20
2019-02-24T03:16:45.414Z,71.90
2019-02-24T03:19:13.917Z,71.90
2019-02-24T03:21:42.374Z,71.60
2019-02-24T03:24:10.848Z,71.10
2019-02-24T03:26:39.292Z,70.30
2019-02-24T03:29:07.770Z,69.80
2019-02-24T03:31:36.214Z,69.70
2019-02-24T03:34:04.776Z,70.00
2019-02-24T03:36:33.262Z,71.70
2019-02-24T03:39:01.727Z,71.90
2019-02-24T03:41:30.185Z,72.00
2019-02-24T03:43:58.726Z,72.00
2019-02-24T03:46:27.239Z,70.40
2019-02-24T03:48:55.700Z,70.20
2019-02-24T03:51:24.125Z,70.10
2019-02-24T03:53:52.645Z,70.20
2019-02-24T03:56:21.384Z,70.10
2019-02-24T03:58:49.977Z,71.40
2019-02-24T04:01:18.396Z,72.80
2019-02-24T04:03:46.944Z,73.10
2019-02-24T04:06:15.526Z,73.50
2019-02-24T04:08:53.854Z,73.40
2019-02-24T04:11:22.312Z,73.20
2019-02-24T04:13:50.817Z,74.30
2019-02-24T04:16:19.263Z,74.20
2019-02-24T04:18:47.678Z,73.50
2019-02-24T04:21:16.194Z,73.90
2019-02-24T04:23:44.702Z,74.50
2019-02-24T04:26:13.198Z,75.10
2019-02-24T04:28:41.715Z,76.20
2019-02-24T04:31:10.172Z,76.50
2019-02-24T04:33:38.650Z,75.50
2019-02-24T04:36:07.082Z,73.50
2019-02-24T04:38:35.602Z,73.10
2019-02-24T04:41:04.052Z,71.90
2019-02-24T04:43:32.555Z,71.70
2019-02-24T04:46:00.994Z,70.60
2019-02-24T04:48:29.466Z,70.90
2019-02-24T04:50:57.933Z,72.40
2019-02-24T04:53:26.391Z,73.70
2019-02-24T04:55:54.850Z,75.00
2019-02-24T04:58:23.288Z,74.20
2019-02-24T05:00:51.738Z,73.40
2019-02-24T05:03:28.931Z,71.70
2019-02-24T05:05:57.424Z,69.20
2019-02-24T05:08:25.867Z,66.10
2019-02-24T05:10:54.386Z,63.70
2019-02-24T05:13:22.819Z,60.60
2019-02-24T05:15:51.259Z,61.20
2019-02-24T05:18:19.689Z,61.30
2019-02-24T05:20:48.207Z,64.20
2019-02-24T05:23:16.647Z,64.60
2019-02-24T05:25:45.127Z,62.90
2019-02-24T05:28:13.531Z,63.00
2019-02-24T05:30:41.957Z,63.20
2019-02-24T05:33:10.470Z,63.70
2019-02-24T05:35:38.921Z,63.30
2019-02-24T05:38:07.371Z,61.40
2019-02-24T05:40:35.808Z,60.00
2019-02-24T05:43:04.307Z,59.50
2019-02-24T05:45:32.718Z,59.10
2019-02-24T05:48:01.151Z,58.70
2019-02-24T05:50:29.599Z,58.20
2019-02-24T05:52:58.042Z,58.20
2019-02-24T05:55:26.506Z,57.70
2019-02-24T05:57:54.921Z,57.40
2019-02-24T06:00:23.342Z,57.00
2019-02-24T06:02:51.801Z,57.10
2019-02-24T06:05:20.227Z,57.30
2019-02-24T06:07:48.665Z,57.90
2019-02-24T06:10:17.086Z,57.60
2019-02-24T06:12:45.522Z,58.10
2019-02-24T06:15:13.973Z,58.40
2019-02-24T06:17:42.381Z,59.00
2019-02-24T06:20:10.845Z,59.10
2019-02-24T06:22:39.267Z,59.50
2019-02-24T06:25:07.752Z,60.60
2019-02-24T06:27:36.350Z,63.00
2019-02-24T06:30:07.225Z,63.90
2019-02-24T06:32:35.653Z,65.80
2019-02-24T06:35:06.055Z,66.30
2019-02-24T06:37:34.526Z,66.00
2019-02-24T06:40:03.014Z,66.80
2019-02-24T06:42:31.424Z,66.80
2019-02-24T06:44:59.876Z,66.30
2019-02-24T06:47:28.299Z,66.70
2019-02-24T06:49:56.735Z,65.90
2019-02-24T06:52:25.242Z,65.80
2019-02-24T06:54:53.690Z,65.70
2019-02-24T06:57:22.165Z,65.80
2019-02-24T06:59:50.574Z,66.00
2019-02-24T07:02:38.368Z,65.90
2019-02-24T07:05:08.197Z,65.60
2019-02-24T07:07:36.752Z,64.60
2019-02-24T07:10:06.719Z,65.00
2019-02-24T07:12:35.187Z,65.00
2019-02-24T07:15:04.990Z,64.60
2019-02-24T07:17:33.574Z,64.60
2019-02-24T07:20:02.025Z,64.60
2019-02-24T07:22:30.431Z,64.70
2019-02-24T07:24:58.923Z,64.60
2019-02-24T07:27:27.347Z,64.10
2019-02-24T07:29:55.787Z,64.00
2019-02-24T07:32:24.244Z,62.50
2019-02-24T07:34:52.700Z,62.40
2019-02-24T07:37:21.156Z,62.50
2019-02-24T07:39:52.274Z,62.00
2019-02-24T07:42:20.710Z,61.80
2019-02-24T07:44:49.210Z,60.30
2019-02-24T07:47:17.663Z,58.70
2019-02-24T07:49:46.172Z,59.00
2019-02-24T07:52:14.647Z,58.40
2019-02-24T07:54:43.081Z,56.90
2019-02-24T07:57:11.522Z,56.60
2019-02-24T07:59:40.025Z,54.90
2019-02-24T08:02:08.502Z,53.90
2019-02-24T08:04:36.969Z,52.60
2019-02-24T08:07:05.379Z,51.30
2019-02-24T08:09:33.860Z,50.30
2019-02-24T08:12:02.318Z,48.90
2019-02-24T08:14:30.750Z,45.80
2019-02-24T08:16:59.163Z,44.80
2019-02-24T08:19:27.646Z,44.50
2019-02-24T08:21:56.089Z,44.90
2019-02-24T08:24:24.565Z,44.10
2019-02-24T08:26:53.009Z,40.20
2019-02-24T08:29:21.456Z,38.40
2019-02-24T08:31:49.924Z,36.50
2019-02-24T08:34:18.341Z,35.60
2019-02-24T08:36:46.918Z,35.00
2019-02-24T08:39:15.341Z,35.40
2019-02-24T08:41:43.742Z,35.30
2019-02-24T08:44:12.337Z,34.80
2019-02-24T08:46:40.751Z,34.00
2019-02-24T08:49:09.225Z,34.30
2019-02-24T08:51:37.695Z,35.80
2019-02-24T08:54:06.297Z,37.70
2019-02-24T08:56:34.732Z,39.10
2019-02-24T08:59:03.287Z,40.10
2019-02-24T09:01:31.790Z,40.80
2019-02-24T09:04:00.272Z,41.30
2019-02-24T09:06:28.805Z,41.60
2019-02-24T09:08:57.290Z,41.70
2019-02-24T09:11:25.725Z,41.80
2019-02-24T09:13:54.171Z,41.90
2019-02-24T09:16:22.640Z,42.10
2019-02-24T09:18:51.074Z,42.00
2019-02-24T09:21:19.531Z,42.00
2019-02-24T09:23:47.971Z,41.50
2019-02-24T09:26:16.447Z,40.90
2019-02-24T09:28:45.412Z,40.50
2019-02-24T09:31:13.859Z,40.10
2019-02-24T09:33:42.307Z,39.70
2019-02-24T09:36:10.750Z,39.00
2019-02-24T09:38:39.337Z,39.00
2019-02-24T09:41:07.867Z,38.50
2019-02-24T09:43:36.293Z,38.40
2019-02-24T09:46:04.721Z,37.90
2019-02-24T09:48:33.211Z,37.30
2019-02-24T09:51:01.613Z,37.20
2019-02-24T09:53:30.099Z,36.70
2019-02-24T09:55:58.867Z,36.60
2019-02-24T09:58:29.949Z,36.70
2019-02-24T10:00:58.381Z,36.60
2019-02-24T10:03:26.897Z,35.80
2019-02-24T10:05:55.287Z,35.40
2019-02-24T10:08:23.751Z,35.10
2019-02-24T10:10:52.210Z,34.90
2019-02-24T10:13:20.672Z,34.50
2019-02-24T10:15:49.182Z,34.00
2019-02-24T10:18:17.785Z,33.90
2019-02-24T10:20:46.244Z,33.80
2019-02-24T10:23:15.134Z,33.40
2019-02-24T10:25:43.592Z,33.00
2019-02-24T10:28:12.031Z,32.50
2019-02-24T10:30:40.519Z,31.90
2019-02-24T10:33:09.010Z,32.20
2019-02-24T10:35:37.463Z,31.90
2019-02-24T10:38:05.921Z,31.30
2019-02-24T10:40:34.525Z,30.40
2019-02-24T10:43:02.995Z,30.20
2019-02-24T10:45:31.435Z,30.00
2019-02-24T10:47:59.867Z,30.00
2019-02-24T10:50:28.370Z,30.60
2019-02-24T10:52:56.813Z,30.80
2019-02-24T10:55:25.291Z,30.90
2019-02-24T10:57:53.783Z,30.90
2019-02-24T11:00:22.899Z,31.00
2019-02-24T11:02:51.357Z,30.90
2019-02-24T11:05:19.942Z,30.90
2019-02-24T11:07:48.398Z,30.60
2019-02-24T11:10:16.910Z,30.40
2019-02-24T11:12:45.367Z,30.20
2019-02-24T11:15:14.257Z,30.40
2019-02-24T11:17:42.745Z,30.40
2019-02-24T11:20:16.245Z,29.90
2019-02-24T11:22:44.824Z,29.70
2019-02-24T11:25:13.521Z,29.40
2019-02-24T11:27:42.077Z,29.60
2019-02-24T11:30:15.105Z,29.60
2019-02-24T11:32:43.607Z,29.40
2019-02-24T11:35:12.974Z,30.00
2019-02-24T11:37:41.703Z,29.50
2019-02-24T11:40:19.262Z,29.10
2019-02-24T11:42:47.728Z,28.80
2019-02-24T11:45:16.329Z,28.40
2019-02-24T11:47:44.759Z,28.20
2019-02-24T11:50:13.791Z,28.20
2019-02-24T11:52:42.273Z,28.20
2019-02-24T11:55:11.205Z,27.90
2019-02-24T11:57:39.757Z,27.20
2019-02-24T12:00:13.657Z,27.10
2019-02-24T12:02:42.133Z,27.10
2019-02-24T12:05:10.897Z,26.30
2019-02-24T12:07:39.401Z,25.70
2019-02-24T12:10:10.266Z,25.30
2019-02-24T12:12:40.172Z,25.40
2019-02-24T12:15:11.108Z,25.50
2019-02-24T12:17:39.677Z,24.80
2019-02-24T12:20:11.138Z,24.20
2019-02-24T12:22:39.737Z,23.50
2019-02-24T12:25:09.848Z,23.50
2019-02-24T12:27:38.310Z,23.60
2019-02-24T12:30:09.908Z,23.80
2019-02-24T12:32:38.424Z,23.60
2019-02-24T12:35:07.386Z,23.20
2019-02-24T12:37:35.823Z,23.00
2019-02-24T12:40:09.736Z,23.00
2019-02-24T12:42:38.155Z,22.70
2019-02-24T12:45:08.666Z,22.70
2019-02-24T12:47:37.112Z,22.90
2019-02-24T12:50:08.633Z,22.80
2019-02-24T12:52:37.157Z,22.60
2019-02-24T12:55:07.110Z,22.40
2019-02-24T12:57:35.618Z,22.40
2019-02-24T13:00:11.143Z,22.30
2019-02-24T13:02:39.631Z,22.00
2019-02-24T13:05:08.193Z,22.40
2019-02-24T13:07:36.715Z,21.60
2019-02-24T13:10:17.855Z,21.60
2019-02-24T13:12:46.369Z,21.30
2019-02-24T13:15:15.005Z,21.00
2019-02-24T13:17:43.514Z,21.00
2019-02-24T13:20:14.704Z,20.40
2019-02-24T13:22:43.209Z,20.00
2019-02-24T13:25:14.933Z,19.90
2019-02-24T13:27:43.456Z,19.70
2019-02-24T13:30:13.362Z,19.50
2019-02-24T13:32:41.850Z,19.60
2019-02-24T13:35:10.422Z,19.40
2019-02-24T13:37:38.926Z,19.20
2019-02-24T13:40:12.684Z,18.90
2019-02-24T13:42:41.127Z,19.00
2019-02-24T13:45:17.360Z,18.60
2019-02-24T13:47:45.892Z,18.60
2019-02-24T13:50:15.448Z,18.80
2019-02-24T13:52:43.863Z,18.50
2019-02-24T13:55:14.699Z,18.50
2019-02-24T13:57:43.282Z,18.20
2019-02-24T14:00:20.038Z,18.70
2019-02-24T14:02:48.592Z,19.10
2019-02-24T14:05:17.092Z,18.70
2019-02-24T14:07:45.599Z,18.50
2019-02-24T14:10:14.997Z,19.00
2019-02-24T14:12:43.519Z,19.60
2019-02-24T14:15:13.306Z,19.30
2019-02-24T14:17:41.886Z,19.00
2019-02-24T14:20:18.114Z,19.10
2019-02-24T14:22:46.597Z,19.50
2019-02-24T14:25:16.160Z,20.00
2019-02-24T14:27:44.585Z,20.10
2019-02-24T14:30:15.222Z,20.60
2019-02-24T14:32:44.363Z,20.80
2019-02-24T14:35:21.854Z,21.60
2019-02-24T14:37:50.338Z,21.80
2019-02-24T14:40:18.766Z,21.50
2019-02-24T14:42:47.236Z,21.80
2019-02-24T14:45:23.392Z,22.00
2019-02-24T14:47:51.900Z,21.50
2019-02-24T14:50:20.370Z,21.60
2019-02-24T14:52:48.862Z,21.60
2019-02-24T14:55:18.277Z,21.80
2019-02-24T14:57:46.725Z,21.80
2019-02-24T15:00:22.890Z,22.10
2019-02-24T15:02:51.321Z,22.30
2019-02-24T15:05:19.837Z,22.10
2019-02-24T15:07:48.283Z,22.10
2019-02-24T15:10:24.710Z,22.10
2019-02-24T15:13:12.548Z,22.10
2019-02-24T15:15:41.032Z,21.60
2019-02-24T15:18:09.451Z,21.60
2019-02-24T15:20:38.042Z,22.00
2019-02-24T15:23:06.823Z,22.00
2019-02-24T15:25:35.499Z,22.00
2019-02-24T15:28:04.056Z,22.20
2019-02-24T15:30:37.083Z,22.40
2019-02-24T15:33:04.939Z,22.50
2019-02-24T15:35:33.495Z,22.50
2019-02-24T15:38:01.986Z,22.60
2019-02-24T15:40:30.492Z,22.40
2019-02-24T15:42:58.937Z,22.40
2019-02-24T15:45:27.431Z,22.30
2019-02-24T15:47:55.893Z,22.40
2019-02-24T15:50:24.404Z,22.40
2019-02-24T15:52:52.980Z,22.30
2019-02-24T15:55:21.514Z,22.30
2019-02-24T15:57:49.934Z,22.30
2019-02-24T16:00:23.387Z,22.50
2019-02-24T16:03:00.721Z,22.30
2019-02-24T16:05:22.443Z,22.60
2019-02-24T16:07:50.899Z,22.60
2019-02-24T16:10:20.645Z,22.40
2019-02-24T16:12:49.157Z,22.60
2019-02-24T16:15:23.017Z,23.00
2019-02-24T16:17:51.549Z,23.30
2019-02-24T16:20:22.891Z,22.90
2019-02-24T16:22:51.539Z,22.60
2019-02-24T16:25:20.139Z,22.70
2019-02-24T16:27:48.599Z,23.00
2019-02-24T16:30:17.190Z,23.50
2019-02-24T16:32:45.812Z,23.40
2019-02-24T16:35:17.991Z,23.50
2019-02-24T16:37:46.457Z,23.90
2019-02-24T16:40:20.388Z,24.10
2019-02-24T16:42:48.937Z,24.60
2019-02-24T16:45:17.468Z,24.60
2019-02-24T16:47:45.995Z,24.60
2019-02-24T16:50:21.979Z,24.80
2019-02-24T16:52:50.473Z,25.00
2019-02-24T16:55:18.983Z,25.30
2019-02-24T16:57:47.501Z,25.70
2019-02-24T17:00:27.088Z,25.90
2019-02-24T17:02:55.675Z,26.30
2019-02-24T17:05:24.158Z,27.30
2019-02-24T17:07:52.587Z,28.40
2019-02-24T17:10:28.315Z,28.60
2019-02-24T17:12:57.111Z,28.90
2019-02-24T17:15:25.594Z,29.30
2019-02-24T17:17:54.071Z,29.50
2019-02-24T17:20:23.967Z,29.80
2019-02-24T17:22:53.745Z,29.80
2019-02-24T17:25:22.185Z,29.80
2019-02-24T17:27:50.714Z,30.30
2019-02-24T17:30:19.232Z,31.00
2019-02-24T17:32:47.685Z,31.80
2019-02-24T17:35:16.180Z,32.80
2019-02-24T17:37:44.598Z,32.80
2019-02-24T17:40:19.533Z,33.60
2019-02-24T17:42:47.966Z,33.80
2019-02-24T17:45:16.470Z,34.40
2019-02-24T17:47:45.035Z,34.70
2019-02-24T17:50:14.390Z,34.60
2019-02-24T17:52:42.861Z,35.10
2019-02-24T17:55:12.983Z,35.30
2019-02-24T17:57:41.362Z,35.90
2019-02-24T18:00:19.597Z,35.80
2019-02-24T18:02:48.073Z,36.30
2019-02-24T18:05:16.492Z,36.90
2019-02-24T18:07:44.954Z,37.70
2019-02-24T18:10:13.437Z,38.40
2019-02-24T18:12:41.962Z,39.50
2019-02-24T18:15:12.141Z,40.80
2019-02-24T18:17:40.691Z,41.10
2019-02-24T18:20:17.468Z,41.40
2019-02-24T18:22:45.979Z,41.30
2019-02-24T18:25:14.458Z,41.30
2019-02-24T18:27:42.954Z,41.70
2019-02-24T18:30:23.315Z,41.10
2019-02-24T18:32:51.839Z,41.50
2019-02-24T18:35:20.367Z,41.80
2019-02-24T18:37:48.890Z,42.30
2019-02-24T18:40:17.479Z,42.90
2019-02-24T18:42:45.958Z,42.80
2019-02-24T18:45:15.038Z,43.70
2019-02-24T18:47:43.690Z,44.10
2019-02-24T18:50:17.424Z,44.70
2019-02-24T18:52:45.923Z,44.20
2019-02-24T18:55:14.471Z,43.70
2019-02-24T18:57:43.034Z,43.00
2019-02-24T19:00:14.828Z,43.40
2019-02-24T19:02:43.336Z,43.20
2019-02-24T19:05:11.875Z,40.90
2019-02-24T19:07:40.407Z,39.40
2019-02-24T19:10:11.990Z,40.40
2019-02-24T19:12:40.416Z,40.00
2019-02-24T19:15:11.963Z,40.80
2019-02-24T19:17:40.446Z,40.10
2019-02-24T19:20:14.858Z,38.60
2019-02-24T19:22:43.362Z,39.10
2019-02-24T19:25:12.188Z,39.60
2019-02-24T19:27:40.666Z,39.30
2019-02-24T19:30:14.578Z,38.70
2019-02-24T19:32:43.059Z,37.90
2019-02-24T19:35:13.229Z,37.60
2019-02-24T19:37:41.791Z,38.70
2019-02-24T19:40:12.808Z,38.50
2019-02-24T19:42:41.276Z,38.30
2019-02-24T19:45:12.673Z,38.70
2019-02-24T19:47:41.086Z,38.60
2019-02-24T19:50:12.211Z,39.50
2019-02-24T19:52:40.771Z,40.50
2019-02-24T19:55:10.894Z,40.60
2019-02-24T19:57:39.488Z,40.90
2019-02-24T20:00:23.048Z,42.30
2019-02-24T20:02:51.651Z,42.40
2019-02-24T20:05:20.848Z,42.30
2019-02-24T20:07:49.429Z,42.60
2019-02-24T20:10:26.106Z,42.00
2019-02-24T20:12:54.583Z,41.30
2019-02-24T20:15:23.264Z,41.80
2019-02-24T20:17:51.778Z,42.00
2019-02-24T20:20:20.345Z,42.70
2019-02-24T20:22:48.902Z,43.70
2019-02-24T20:25:19.598Z,44.40
2019-02-24T20:27:48.084Z,44.70
2019-02-24T20:30:21.872Z,45.00
2019-02-24T20:32:50.362Z,46.20
2019-02-24T20:35:18.919Z,47.10
2019-02-24T20:37:47.446Z,47.90
2019-02-24T20:40:15.983Z,48.50
2019-02-24T20:42:44.419Z,48.70
2019-02-24T20:45:15.109Z,49.10
2019-02-24T20:47:43.561Z,50.40
2019-02-24T20:50:17.235Z,51.10
2019-02-24T20:52:45.731Z,51.40
2019-02-24T20:55:14.259Z,52.20
2019-02-24T20:57:42.744Z,52.60
2019-02-24T21:00:38.276Z,54.10
2019-02-24T21:03:06.730Z,55.20
2019-02-24T21:05:35.359Z,55.80
2019-02-24T21:08:04.127Z,55.60
2019-02-24T21:10:32.778Z,55.10
2019-02-24T21:13:01.453Z,55.00
2019-02-24T21:15:29.986Z,55.30
2019-02-24T21:17:58.458Z,55.40
2019-02-24T21:20:32.421Z,55.00
2019-02-24T21:23:00.913Z,54.80
2019-02-24T21:25:29.530Z,53.90
2019-02-24T21:27:57.968Z,53.20
2019-02-24T21:30:26.563Z,52.60
2019-02-24T21:32:55.057Z,52.60
2019-02-24T21:35:23.525Z,53.60
2019-02-24T21:37:52.084Z,53.60
2019-02-24T21:40:21.137Z,53.50
2019-02-24T21:42:49.584Z,54.00
2019-02-24T21:45:32.831Z,53.40
2019-02-24T21:48:01.690Z,53.50
2019-02-24T21:50:30.170Z,53.00
2019-02-24T21:52:58.589Z,52.40
2019-02-24T21:55:27.084Z,52.10
2019-02-24T21:57:55.519Z,51.80
2019-02-24T22:00:28.329Z,51.80
2019-02-24T22:02:56.795Z,52.90
2019-02-24T22:05:25.198Z,55.20
2019-02-24T22:07:55.601Z,56.00
2019-02-24T22:10:23.876Z,56.00
2019-02-24T22:12:52.342Z,56.60
2019-02-24T22:15:25.698Z,55.70
2019-02-24T22:17:54.291Z,54.70
2019-02-24T22:20:22.817Z,54.70
2019-02-24T22:22:51.262Z,55.60
2019-02-24T22:25:19.747Z,55.50
2019-02-24T22:27:49.608Z,56.00
2019-02-24T22:30:22.695Z,55.90
2019-02-24T22:32:51.260Z,55.80
2019-02-24T22:35:19.805Z,55.30
2019-02-24T22:37:48.591Z,55.60
2019-02-24T22:40:17.463Z,55.50
2019-02-24T22:42:46.777Z,55.20
2019-02-24T22:45:20.123Z,55.20
2019-02-24T22:47:48.932Z,55.10
2019-02-24T22:50:17.613Z,54.50
2019-02-24T22:52:48.963Z,54.10
2019-02-24T22:55:18.570Z,53.50
2019-02-24T22:57:47.064Z,53.40
2019-02-24T23:00:36.851Z,53.60
2019-02-24T23:03:05.836Z,53.40
2019-02-24T23:05:34.244Z,55.20
2019-02-24T23:08:02.708Z,56.40
2019-02-24T23:10:31.160Z,57.60
2019-02-24T23:12:59.575Z,57.80
2019-02-24T23:15:28.034Z,57.90
2019-02-24T23:17:56.453Z,57.50
2019-02-24T23:20:24.910Z,58.10
2019-02-24T23:22:53.310Z,56.90
2019-02-24T23:25:21.770Z,56.70
2019-02-24T23:27:50.186Z,56.70
2019-02-24T23:30:18.701Z,57.20
2019-02-24T23:32:47.188Z,57.20
2019-02-24T23:35:15.594Z,58.20
2019-02-24T23:37:44.045Z,57.40
2019-02-24T23:40:12.570Z,57.60
2019-02-24T23:42:41.015Z,58.00
2019-02-24T23:45:11.066Z,58.50
2019-02-24T23:47:39.924Z,57.70
2019-02-24T23:50:09.912Z,57.40
2019-02-24T23:52:38.348Z,57.30
2019-02-24T23:55:07.928Z,58.60
2019-02-24T23:57:36.351Z,60.00
